sensor_id;sensor_type;location;lat;lon;timestamp;pressure;altitude;pressure_sealevel;temperature;humidity
77469;BME280;68840;50.272;12.818;2023-04-25T00:00:06;95217;;;7.0;71.4
77469;BME280;68840;50.272;12.818;2023-04-25T00:02:06;95217;;;7.1;71.3
77469;BME280;68840;50.272;12.818;2023-04-25T00:04:05;95216;;;7.1;71.2
77469;BME280;68840;50.272;12.818;2023-04-25T00:06:06;95216;;;7.1;71.1
77469;BME280;68840;50.272;12.818;2023-04-25T00:08:05;95216;;;7.1;71.0
77469;BME280;68840;50.272;12.818;2023-04-25T00:10:06;95214;;;7.1;71.0
77469;BME280;68840;50.272;12.818;2023-04-25T00:12:06;95213;;;7.1;71.0
77469;BME280;68840;50.272;12.818;2023-04-25T00:14:06;95210;;;7.1;71.0
77469;BME280;68840;50.272;12.818;2023-04-25T00:16:06;95211;;;7.1;71.0
77469;BME280;68840;50.272;12.818;2023-04-25T00:18:06;95210;;;7.1;71.0
77469;BME280;68840;50.272;12.818;2023-04-25T00:20:09;95210;;;7.1;71.1
77469;BME280;68840;50.272;12.818;2023-04-25T00:22:05;95207;;;7.1;70.9
77469;BME280;68840;50.272;12.818;2023-04-25T00:24:06;95208;;;7.1;71.1
77469;BME280;68840;50.272;12.818;2023-04-25T00:26:05;95206;;;7.1;70.9
77469;BME280;68840;50.272;12.818;2023-04-25T00:28:05;95208;;;7.1;71.0
77469;BME280;68840;50.272;12.818;2023-04-25T00:30:06;95208;;;7.1;70.9
77469;BME280;68840;50.272;12.818;2023-04-25T00:32:05;95205;;;7.1;70.9
77469;BME280;68840;50.272;12.818;2023-04-25T00:34:06;95202;;;7.2;70.8
77469;BME280;68840;50.272;12.818;2023-04-25T00:36:06;95201;;;7.2;70.8
77469;BME280;68840;50.272;12.818;2023-04-25T00:38:05;95201;;;7.2;70.8
77469;BME280;68840;50.272;12.818;2023-04-25T00:40:06;95197;;;7.2;70.8
77469;BME280;68840;50.272;12.818;2023-04-25T00:42:06;95197;;;7.2;70.9
77469;BME280;68840;50.272;12.818;2023-04-25T00:44:08;95194;;;7.2;70.9
77469;BME280;68840;50.272;12.818;2023-04-25T00:46:05;95190;;;7.2;70.8
77469;BME280;68840;50.272;12.818;2023-04-25T00:48:06;95189;;;7.2;70.8
77469;BME280;68840;50.272;12.818;2023-04-25T00:50:06;95189;;;7.2;70.7
77469;BME280;68840;50.272;12.818;2023-04-25T00:52:05;95190;;;7.2;70.7
77469;BME280;68840;50.272;12.818;2023-04-25T00:54:05;95188;;;7.2;70.8
77469;BME280;68840;50.272;12.818;2023-04-25T00:56:05;95185;;;7.2;70.7
77469;BME280;68840;50.272;12.818;2023-04-25T00:58:05;95182;;;7.2;70.6
77469;BME280;68840;50.272;12.818;2023-04-25T01:00:07;95182;;;7.3;70.9
77469;BME280;68840;50.272;12.818;2023-04-25T01:02:05;95184;;;7.3;70.8
77469;BME280;68840;50.272;12.818;2023-04-25T01:04:05;95183;;;7.3;70.7
77469;BME280;68840;50.272;12.818;2023-04-25T01:06:05;95183;;;7.3;70.8
77469;BME280;68840;50.272;12.818;2023-04-25T01:08:05;95183;;;7.4;70.6
77469;BME280;68840;50.272;12.818;2023-04-25T01:10:07;95181;;;7.4;70.5
77469;BME280;68840;50.272;12.818;2023-04-25T01:12:05;95179;;;7.4;70.6
77469;BME280;68840;50.272;12.818;2023-04-25T01:14:06;95180;;;7.4;70.6
77469;BME280;68840;50.272;12.818;2023-04-25T01:16:05;95181;;;7.4;70.6
77469;BME280;68840;50.272;12.818;2023-04-25T01:18:05;95183;;;7.4;70.7
77469;BME280;68840;50.272;12.818;2023-04-25T01:20:07;95182;;;7.4;70.8
77469;BME280;68840;50.272;12.818;2023-04-25T01:22:05;95181;;;7.4;70.7
77469;BME280;68840;50.272;12.818;2023-04-25T01:24:06;95181;;;7.4;70.6
77469;BME280;68840;50.272;12.818;2023-04-25T01:26:05;95178;;;7.4;70.8
77469;BME280;68840;50.272;12.818;2023-04-25T01:28:05;95175;;;7.4;70.7
77469;BME280;68840;50.272;12.818;2023-04-25T01:30:07;95176;;;7.4;70.7
77469;BME280;68840;50.272;12.818;2023-04-25T01:32:06;95172;;;7.4;70.8
77469;BME280;68840;50.272;12.818;2023-04-25T01:34:05;95172;;;7.4;70.8
77469;BME280;68840;50.272;12.818;2023-04-25T01:36:06;95170;;;7.4;70.8
77469;BME280;68840;50.272;12.818;2023-04-25T01:38:05;95167;;;7.4;70.8
77469;BME280;68840;50.272;12.818;2023-04-25T01:40:07;95167;;;7.4;71.0
77469;BME280;68840;50.272;12.818;2023-04-25T01:42:05;95168;;;7.4;71.0
77469;BME280;68840;50.272;12.818;2023-04-25T01:44:05;95170;;;7.3;71.2
77469;BME280;68840;50.272;12.818;2023-04-25T01:46:05;95170;;;7.4;71.2
77469;BME280;68840;50.272;12.818;2023-04-25T01:48:05;95167;;;7.4;71.2
77469;BME280;68840;50.272;12.818;2023-04-25T01:50:07;95164;;;7.4;71.3
77469;BME280;68840;50.272;12.818;2023-04-25T01:52:05;95167;;;7.3;71.2
77469;BME280;68840;50.272;12.818;2023-04-25T01:54:05;95165;;;7.3;71.4
77469;BME280;68840;50.272;12.818;2023-04-25T01:56:06;95164;;;7.3;71.5
77469;BME280;68840;50.272;12.818;2023-04-25T01:58:09;95164;;;7.2;71.6
77469;BME280;68840;50.272;12.818;2023-04-25T02:00:07;95159;;;7.2;71.6
77469;BME280;68840;50.272;12.818;2023-04-25T02:02:05;95159;;;7.2;71.8
77469;BME280;68840;50.272;12.818;2023-04-25T02:04:05;95159;;;7.2;71.7
77469;BME280;68840;50.272;12.818;2023-04-25T02:06:05;95160;;;7.1;71.9
77469;BME280;68840;50.272;12.818;2023-04-25T02:08:07;95162;;;7.1;72.0
77469;BME280;68840;50.272;12.818;2023-04-25T02:10:06;95161;;;7.1;72.0
77469;BME280;68840;50.272;12.818;2023-04-25T02:12:07;95160;;;7.1;72.0
77469;BME280;68840;50.272;12.818;2023-04-25T02:14:05;95160;;;7.1;72.1
77469;BME280;68840;50.272;12.818;2023-04-25T02:16:05;95158;;;7.2;72.2
77469;BME280;68840;50.272;12.818;2023-04-25T02:18:06;95156;;;7.2;72.1
77469;BME280;68840;50.272;12.818;2023-04-25T02:20:06;95154;;;7.2;72.0
77469;BME280;68840;50.272;12.818;2023-04-25T02:22:05;95154;;;7.2;71.9
77469;BME280;68840;50.272;12.818;2023-04-25T02:24:06;95154;;;7.2;71.9
77469;BME280;68840;50.272;12.818;2023-04-25T02:26:06;95153;;;7.2;71.9
77469;BME280;68840;50.272;12.818;2023-04-25T02:28:05;95152;;;7.2;71.8
77469;BME280;68840;50.272;12.818;2023-04-25T02:30:07;95150;;;7.2;71.9
77469;BME280;68840;50.272;12.818;2023-04-25T02:32:05;95152;;;7.2;71.9
77469;BME280;68840;50.272;12.818;2023-04-25T02:34:05;95150;;;7.2;71.8
77469;BME280;68840;50.272;12.818;2023-04-25T02:36:05;95150;;;7.2;71.8
77469;BME280;68840;50.272;12.818;2023-04-25T02:38:05;95147;;;7.2;71.8
77469;BME280;68840;50.272;12.818;2023-04-25T02:40:06;95145;;;7.2;71.8
77469;BME280;68840;50.272;12.818;2023-04-25T02:42:05;95140;;;7.2;71.9
77469;BME280;68840;50.272;12.818;2023-04-25T02:44:05;95137;;;7.2;71.7
77469;BME280;68840;50.272;12.818;2023-04-25T02:46:06;95135;;;7.2;71.7
77469;BME280;68840;50.272;12.818;2023-04-25T02:48:05;95134;;;7.2;71.7
77469;BME280;68840;50.272;12.818;2023-04-25T02:50:06;95134;;;7.2;71.8
77469;BME280;68840;50.272;12.818;2023-04-25T02:52:06;95130;;;7.2;71.9
77469;BME280;68840;50.272;12.818;2023-04-25T02:54:06;95127;;;7.2;72.0
77469;BME280;68840;50.272;12.818;2023-04-25T02:56:05;95126;;;7.1;71.9
77469;BME280;68840;50.272;12.818;2023-04-25T02:58:05;95124;;;7.1;72.0
77469;BME280;68840;50.272;12.818;2023-04-25T03:00:07;95122;;;7.1;72.0
77469;BME280;68840;50.272;12.818;2023-04-25T03:02:05;95121;;;7.1;72.0
77469;BME280;68840;50.272;12.818;2023-04-25T03:04:05;95122;;;7.1;71.9
77469;BME280;68840;50.272;12.818;2023-04-25T03:06:05;95119;;;7.1;72.0
77469;BME280;68840;50.272;12.818;2023-04-25T03:08:05;95122;;;7.1;71.9
77469;BME280;68840;50.272;12.818;2023-04-25T03:10:06;95121;;;7.1;71.9
77469;BME280;68840;50.272;12.818;2023-04-25T03:12:05;95120;;;7.1;71.9
77469;BME280;68840;50.272;12.818;2023-04-25T03:14:05;95122;;;7.2;71.9
77469;BME280;68840;50.272;12.818;2023-04-25T03:16:06;95119;;;7.2;72.0
77469;BME280;68840;50.272;12.818;2023-04-25T03:18:05;95116;;;7.2;72.0
77469;BME280;68840;50.272;12.818;2023-04-25T03:20:08;95115;;;7.2;72.1
77469;BME280;68840;50.272;12.818;2023-04-25T03:22:05;95116;;;7.2;72.0
77469;BME280;68840;50.272;12.818;2023-04-25T03:24:05;95115;;;7.2;72.0
77469;BME280;68840;50.272;12.818;2023-04-25T03:26:05;95115;;;7.2;72.1
77469;BME280;68840;50.272;12.818;2023-04-25T03:28:05;95114;;;7.2;72.3
77469;BME280;68840;50.272;12.818;2023-04-25T03:30:07;95114;;;7.2;72.2
77469;BME280;68840;50.272;12.818;2023-04-25T03:32:06;95115;;;7.2;72.1
77469;BME280;68840;50.272;12.818;2023-04-25T03:34:05;95114;;;7.2;72.0
77469;BME280;68840;50.272;12.818;2023-04-25T03:36:06;95113;;;7.2;72.2
77469;BME280;68840;50.272;12.818;2023-04-25T03:38:05;95111;;;7.2;72.1
77469;BME280;68840;50.272;12.818;2023-04-25T03:40:06;95111;;;7.2;72.0
77469;BME280;68840;50.272;12.818;2023-04-25T03:42:05;95111;;;7.2;72.0
77469;BME280;68840;50.272;12.818;2023-04-25T03:44:05;95110;;;7.2;72.0
77469;BME280;68840;50.272;12.818;2023-04-25T03:46:05;95111;;;7.2;72.0
77469;BME280;68840;50.272;12.818;2023-04-25T03:48:05;95111;;;7.2;72.0
77469;BME280;68840;50.272;12.818;2023-04-25T03:50:06;95110;;;7.2;71.9
77469;BME280;68840;50.272;12.818;2023-04-25T03:52:05;95110;;;7.2;71.9
77469;BME280;68840;50.272;12.818;2023-04-25T03:54:05;95112;;;7.2;72.0
77469;BME280;68840;50.272;12.818;2023-04-25T03:56:06;95112;;;7.1;72.1
77469;BME280;68840;50.272;12.818;2023-04-25T03:58:05;95112;;;7.1;72.2
77469;BME280;68840;50.272;12.818;2023-04-25T04:00:06;95114;;;7.1;72.0
77469;BME280;68840;50.272;12.818;2023-04-25T04:02:05;95114;;;7.2;72.0
77469;BME280;68840;50.272;12.818;2023-04-25T04:04:05;95119;;;7.2;72.1
77469;BME280;68840;50.272;12.818;2023-04-25T04:06:06;95121;;;7.1;72.1
77469;BME280;68840;50.272;12.818;2023-04-25T04:08:05;95121;;;7.1;72.1
77469;BME280;68840;50.272;12.818;2023-04-25T04:10:06;95121;;;7.1;72.1
77469;BME280;68840;50.272;12.818;2023-04-25T04:12:06;95120;;;7.1;72.2
77469;BME280;68840;50.272;12.818;2023-04-25T04:14:06;95121;;;7.1;72.3
77469;BME280;68840;50.272;12.818;2023-04-25T04:16:05;95123;;;7.1;72.2
77469;BME280;68840;50.272;12.818;2023-04-25T04:18:06;95125;;;7.1;72.3
77469;BME280;68840;50.272;12.818;2023-04-25T04:20:07;95126;;;7.1;72.3
77469;BME280;68840;50.272;12.818;2023-04-25T04:22:05;95125;;;7.1;72.2
77469;BME280;68840;50.272;12.818;2023-04-25T04:24:06;95123;;;7.1;72.2
77469;BME280;68840;50.272;12.818;2023-04-25T04:26:07;95122;;;7.1;72.1
77469;BME280;68840;50.272;12.818;2023-04-25T04:28:05;95125;;;7.1;72.2
77469;BME280;68840;50.272;12.818;2023-04-25T04:30:07;95125;;;7.1;72.1
77469;BME280;68840;50.272;12.818;2023-04-25T04:32:05;95123;;;7.1;72.1
77469;BME280;68840;50.272;12.818;2023-04-25T04:34:05;95123;;;7.1;72.4
77469;BME280;68840;50.272;12.818;2023-04-25T04:36:07;95124;;;7.1;72.3
77469;BME280;68840;50.272;12.818;2023-04-25T04:38:05;95125;;;7.1;72.3
77469;BME280;68840;50.272;12.818;2023-04-25T04:40:07;95125;;;7.1;72.3
77469;BME280;68840;50.272;12.818;2023-04-25T04:42:05;95124;;;7.1;72.3
77469;BME280;68840;50.272;12.818;2023-04-25T04:44:06;95123;;;7.1;72.5
77469;BME280;68840;50.272;12.818;2023-04-25T04:46:05;95123;;;7.1;72.4
77469;BME280;68840;50.272;12.818;2023-04-25T04:48:05;95121;;;7.1;72.4
77469;BME280;68840;50.272;12.818;2023-04-25T04:50:08;95120;;;7.1;72.6
77469;BME280;68840;50.272;12.818;2023-04-25T04:52:06;95122;;;7.1;72.5
77469;BME280;68840;50.272;12.818;2023-04-25T04:54:05;95124;;;7.1;72.5
77469;BME280;68840;50.272;12.818;2023-04-25T04:56:05;95122;;;7.1;72.5
77469;BME280;68840;50.272;12.818;2023-04-25T04:58:05;95120;;;7.1;72.9
77469;BME280;68840;50.272;12.818;2023-04-25T05:00:10;95120;;;7.1;72.8
77469;BME280;68840;50.272;12.818;2023-04-25T05:02:05;95120;;;7.1;72.9
77469;BME280;68840;50.272;12.818;2023-04-25T05:04:05;95121;;;7.1;72.7
77469;BME280;68840;50.272;12.818;2023-04-25T05:06:06;95120;;;7.1;72.8
77469;BME280;68840;50.272;12.818;2023-04-25T05:08:05;95123;;;7.1;73.0
77469;BME280;68840;50.272;12.818;2023-04-25T05:10:06;95124;;;7.1;72.9
77469;BME280;68840;50.272;12.818;2023-04-25T05:12:06;95123;;;7.1;72.8
77469;BME280;68840;50.272;12.818;2023-04-25T05:14:05;95122;;;7.1;72.8
77469;BME280;68840;50.272;12.818;2023-04-25T05:16:05;95120;;;7.2;72.7
77469;BME280;68840;50.272;12.818;2023-04-25T05:18:05;95116;;;7.2;72.8
77469;BME280;68840;50.272;12.818;2023-04-25T05:20:07;95114;;;7.2;72.8
77469;BME280;68840;50.272;12.818;2023-04-25T05:22:05;95113;;;7.2;72.8
77469;BME280;68840;50.272;12.818;2023-04-25T05:24:05;95115;;;7.2;72.9
77469;BME280;68840;50.272;12.818;2023-04-25T05:26:05;95113;;;7.3;72.9
77469;BME280;68840;50.272;12.818;2023-04-25T05:28:05;95113;;;7.4;72.7
77469;BME280;68840;50.272;12.818;2023-04-25T05:30:06;95113;;;7.4;72.8
77469;BME280;68840;50.272;12.818;2023-04-25T05:32:05;95113;;;7.5;72.7
77469;BME280;68840;50.272;12.818;2023-04-25T05:34:05;95114;;;7.5;72.5
77469;BME280;68840;50.272;12.818;2023-04-25T05:36:06;95112;;;7.5;72.5
77469;BME280;68840;50.272;12.818;2023-04-25T05:38:05;95111;;;7.6;72.2
77469;BME280;68840;50.272;12.818;2023-04-25T05:40:07;95112;;;7.6;72.3
77469;BME280;68840;50.272;12.818;2023-04-25T05:42:05;95113;;;7.5;72.4
77469;BME280;68840;50.272;12.818;2023-04-25T05:44:05;95112;;;7.5;72.2
77469;BME280;68840;50.272;12.818;2023-04-25T05:46:05;95111;;;7.5;72.6
77469;BME280;68840;50.272;12.818;2023-04-25T05:48:05;95110;;;7.5;72.4
77469;BME280;68840;50.272;12.818;2023-04-25T05:50:07;95109;;;7.5;72.7
77469;BME280;68840;50.272;12.818;2023-04-25T05:52:05;95110;;;7.5;72.8
77469;BME280;68840;50.272;12.818;2023-04-25T05:54:05;95112;;;7.5;72.8
77469;BME280;68840;50.272;12.818;2023-04-25T05:56:05;95112;;;7.5;72.7
77469;BME280;68840;50.272;12.818;2023-04-25T05:58:06;95111;;;7.5;72.9
77469;BME280;68840;50.272;12.818;2023-04-25T06:00:09;95112;;;7.4;73.2
77469;BME280;68840;50.272;12.818;2023-04-25T06:02:06;95117;;;7.4;73.3
77469;BME280;68840;50.272;12.818;2023-04-25T06:04:05;95122;;;7.5;73.5
77469;BME280;68840;50.272;12.818;2023-04-25T06:06:05;95126;;;7.5;73.5
77469;BME280;68840;50.272;12.818;2023-04-25T06:08:05;95126;;;7.4;73.7
77469;BME280;68840;50.272;12.818;2023-04-25T06:10:07;95126;;;7.4;73.7
77469;BME280;68840;50.272;12.818;2023-04-25T06:12:06;95124;;;7.4;74.1
77469;BME280;68840;50.272;12.818;2023-04-25T06:14:05;95123;;;7.4;74.2
77469;BME280;68840;50.272;12.818;2023-04-25T06:16:06;95122;;;7.4;74.3
77469;BME280;68840;50.272;12.818;2023-04-25T06:18:05;95122;;;7.4;74.2
77469;BME280;68840;50.272;12.818;2023-04-25T06:20:06;95124;;;7.4;74.2
77469;BME280;68840;50.272;12.818;2023-04-25T06:22:07;95125;;;7.4;74.2
77469;BME280;68840;50.272;12.818;2023-04-25T06:24:05;95127;;;7.4;74.3
77469;BME280;68840;50.272;12.818;2023-04-25T06:26:05;95127;;;7.4;74.3
77469;BME280;68840;50.272;12.818;2023-04-25T06:28:05;95129;;;7.4;74.7
77469;BME280;68840;50.272;12.818;2023-04-25T06:30:06;95128;;;7.4;73.9
77469;BME280;68840;50.272;12.818;2023-04-25T06:32:05;95128;;;7.4;71.9
77469;BME280;68840;50.272;12.818;2023-04-25T06:34:05;95129;;;7.3;71.7
77469;BME280;68840;50.272;12.818;2023-04-25T06:36:05;95133;;;7.3;71.8
77469;BME280;68840;50.272;12.818;2023-04-25T06:38:05;95136;;;7.2;71.6
77469;BME280;68840;50.272;12.818;2023-04-25T06:40:06;95138;;;7.2;71.8
77469;BME280;68840;50.272;12.818;2023-04-25T06:42:05;95137;;;7.2;71.3
77469;BME280;68840;50.272;12.818;2023-04-25T06:44:06;95137;;;7.2;70.4
77469;BME280;68840;50.272;12.818;2023-04-25T06:46:05;95137;;;7.1;70.6
77469;BME280;68840;50.272;12.818;2023-04-25T06:48:05;95137;;;7.1;70.0
77469;BME280;68840;50.272;12.818;2023-04-25T06:50:06;95141;;;7.0;70.2
77469;BME280;68840;50.272;12.818;2023-04-25T06:52:05;95143;;;6.9;69.7
77469;BME280;68840;50.272;12.818;2023-04-25T06:54:06;95141;;;6.8;69.6
77469;BME280;68840;50.272;12.818;2023-04-25T06:56:05;95139;;;6.8;70.7
77469;BME280;68840;50.272;12.818;2023-04-25T06:58:05;95137;;;6.7;71.3
77469;BME280;68840;50.272;12.818;2023-04-25T07:00:09;95136;;;6.7;71.2
77469;BME280;68840;50.272;12.818;2023-04-25T07:02:06;95138;;;6.6;71.4
77469;BME280;68840;50.272;12.818;2023-04-25T07:04:06;95142;;;6.6;70.7
77469;BME280;68840;50.272;12.818;2023-04-25T07:06:06;95143;;;6.6;70.8
77469;BME280;68840;50.272;12.818;2023-04-25T07:08:05;95145;;;6.5;71.4
77469;BME280;68840;50.272;12.818;2023-04-25T07:10:06;95144;;;6.5;71.3
77469;BME280;68840;50.272;12.818;2023-04-25T07:12:06;95146;;;6.5;71.2
77469;BME280;68840;50.272;12.818;2023-04-25T07:14:05;95146;;;6.5;71.2
77469;BME280;68840;50.272;12.818;2023-04-25T07:16:05;95148;;;6.5;70.1
77469;BME280;68840;50.272;12.818;2023-04-25T07:18:05;95147;;;6.5;70.7
77469;BME280;68840;50.272;12.818;2023-04-25T07:20:06;95149;;;6.6;71.2
77469;BME280;68840;50.272;12.818;2023-04-25T07:22:05;95153;;;6.6;71.0
77469;BME280;68840;50.272;12.818;2023-04-25T07:24:06;95152;;;6.6;69.9
77469;BME280;68840;50.272;12.818;2023-04-25T07:26:05;95150;;;6.6;70.2
77469;BME280;68840;50.272;12.818;2023-04-25T07:28:05;95151;;;6.7;69.5
77469;BME280;68840;50.272;12.818;2023-04-25T07:30:07;95158;;;6.7;70.3
77469;BME280;68840;50.272;12.818;2023-04-25T07:32:05;95165;;;6.7;71.1
77469;BME280;68840;50.272;12.818;2023-04-25T07:34:05;95171;;;6.7;71.1
77469;BME280;68840;50.272;12.818;2023-04-25T07:36:06;95173;;;6.7;70.8
77469;BME280;68840;50.272;12.818;2023-04-25T07:38:06;95173;;;6.7;71.8
77469;BME280;68840;50.272;12.818;2023-04-25T07:40:06;95174;;;6.7;71.4
77469;BME280;68840;50.272;12.818;2023-04-25T07:42:08;95176;;;6.7;72.4
77469;BME280;68840;50.272;12.818;2023-04-25T07:44:05;95180;;;6.7;71.9
77469;BME280;68840;50.272;12.818;2023-04-25T07:46:06;95182;;;6.8;72.0
77469;BME280;68840;50.272;12.818;2023-04-25T07:48:05;95183;;;6.8;72.3
77469;BME280;68840;50.272;12.818;2023-04-25T07:50:06;95186;;;6.8;72.3
77469;BME280;68840;50.272;12.818;2023-04-25T07:52:06;95187;;;6.8;72.3
77469;BME280;68840;50.272;12.818;2023-04-25T07:54:05;95189;;;6.8;72.0
77469;BME280;68840;50.272;12.818;2023-04-25T07:56:05;95189;;;6.8;72.5
77469;BME280;68840;50.272;12.818;2023-04-25T07:58:05;95187;;;6.8;73.0
77469;BME280;68840;50.272;12.818;2023-04-25T08:00:09;95185;;;6.9;73.1
77469;BME280;68840;50.272;12.818;2023-04-25T08:02:05;95188;;;7.0;74.1
77469;BME280;68840;50.272;12.818;2023-04-25T08:04:05;95187;;;7.1;73.6
77469;BME280;68840;50.272;12.818;2023-04-25T08:06:06;95191;;;7.2;73.2
77469;BME280;68840;50.272;12.818;2023-04-25T08:08:06;95192;;;7.4;73.0
77469;BME280;68840;50.272;12.818;2023-04-25T08:10:06;95192;;;7.5;72.3
77469;BME280;68840;50.272;12.818;2023-04-25T08:12:05;95195;;;7.6;71.9
77469;BME280;68840;50.272;12.818;2023-04-25T08:14:05;95196;;;7.7;71.5
77469;BME280;68840;50.272;12.818;2023-04-25T08:16:05;95197;;;7.7;71.6
77469;BME280;68840;50.272;12.818;2023-04-25T08:18:05;95197;;;7.8;69.7
77469;BME280;68840;50.272;12.818;2023-04-25T08:20:06;95199;;;7.8;71.7
77469;BME280;68840;50.272;12.818;2023-04-25T08:22:05;95202;;;7.9;70.7
77469;BME280;68840;50.272;12.818;2023-04-25T08:24:05;95202;;;7.9;68.4
77469;BME280;68840;50.272;12.818;2023-04-25T08:26:05;95204;;;7.9;69.0
77469;BME280;68840;50.272;12.818;2023-04-25T08:28:06;95207;;;7.9;67.5
77469;BME280;68840;50.272;12.818;2023-04-25T08:30:08;95212;;;7.9;70.2
77469;BME280;68840;50.272;12.818;2023-04-25T08:32:05;95214;;;8.0;70.6
77469;BME280;68840;50.272;12.818;2023-04-25T08:34:05;95217;;;8.1;70.3
77469;BME280;68840;50.272;12.818;2023-04-25T08:36:06;95218;;;8.1;69.1
77469;BME280;68840;50.272;12.818;2023-04-25T08:38:06;95220;;;8.2;70.4
77469;BME280;68840;50.272;12.818;2023-04-25T08:40:07;95219;;;8.2;72.0
77469;BME280;68840;50.272;12.818;2023-04-25T08:42:07;95216;;;8.4;72.3
77469;BME280;68840;50.272;12.818;2023-04-25T08:44:09;95218;;;8.6;70.1
77469;BME280;68840;50.272;12.818;2023-04-25T08:46:06;95225;;;8.7;71.0
77469;BME280;68840;50.272;12.818;2023-04-25T08:48:07;95224;;;8.7;69.0
77469;BME280;68840;50.272;12.818;2023-04-25T08:50:06;95229;;;8.7;68.8
77469;BME280;68840;50.272;12.818;2023-04-25T08:52:07;95231;;;8.7;68.4
77469;BME280;68840;50.272;12.818;2023-04-25T08:54:10;95232;;;8.7;68.7
77469;BME280;68840;50.272;12.818;2023-04-25T08:56:09;95233;;;8.7;68.4
77469;BME280;68840;50.272;12.818;2023-04-25T08:58:05;95233;;;8.6;68.6
77469;BME280;68840;50.272;12.818;2023-04-25T09:00:08;95235;;;8.6;69.6
77469;BME280;68840;50.272;12.818;2023-04-25T09:02:05;95236;;;8.7;69.3
77469;BME280;68840;50.272;12.818;2023-04-25T09:04:05;95237;;;8.9;71.2
77469;BME280;68840;50.272;12.818;2023-04-25T09:06:05;95243;;;9.0;70.0
77469;BME280;68840;50.272;12.818;2023-04-25T09:08:06;95244;;;9.1;70.6
77469;BME280;68840;50.272;12.818;2023-04-25T09:10:06;95242;;;9.1;69.4
77469;BME280;68840;50.272;12.818;2023-04-25T09:12:05;95243;;;9.2;68.1
77469;BME280;68840;50.272;12.818;2023-04-25T09:14:14;95242;;;9.2;69.9
77469;BME280;68840;50.272;12.818;2023-04-25T09:16:05;95240;;;9.3;68.0
77469;BME280;68840;50.272;12.818;2023-04-25T09:18:05;95243;;;9.4;66.9
77469;BME280;68840;50.272;12.818;2023-04-25T09:20:08;95241;;;9.4;66.5
77469;BME280;68840;50.272;12.818;2023-04-25T09:22:06;95243;;;9.4;64.7
77469;BME280;68840;50.272;12.818;2023-04-25T09:24:06;95244;;;9.4;61.8
77469;BME280;68840;50.272;12.818;2023-04-25T09:26:07;95246;;;9.4;62.8
77469;BME280;68840;50.272;12.818;2023-04-25T09:28:06;95246;;;9.4;61.7
77469;BME280;68840;50.272;12.818;2023-04-25T09:30:06;95249;;;9.4;61.6
77469;BME280;68840;50.272;12.818;2023-04-25T09:32:15;95254;;;9.5;61.9
77469;BME280;68840;50.272;12.818;2023-04-25T09:34:05;95258;;;9.5;62.3
77469;BME280;68840;50.272;12.818;2023-04-25T09:36:07;95257;;;9.5;62.0
77469;BME280;68840;50.272;12.818;2023-04-25T09:38:11;95258;;;9.5;59.9
77469;BME280;68840;50.272;12.818;2023-04-25T09:40:08;95260;;;9.4;60.3
77469;BME280;68840;50.272;12.818;2023-04-25T09:42:06;95259;;;9.4;60.9
77469;BME280;68840;50.272;12.818;2023-04-25T09:44:05;95261;;;9.4;61.7
77469;BME280;68840;50.272;12.818;2023-04-25T09:46:08;95258;;;9.5;61.4
77469;BME280;68840;50.272;12.818;2023-04-25T09:48:06;95264;;;9.5;58.4
77469;BME280;68840;50.272;12.818;2023-04-25T09:50:14;95267;;;9.5;60.1
77469;BME280;68840;50.272;12.818;2023-04-25T09:52:05;95269;;;9.4;61.8
77469;BME280;68840;50.272;12.818;2023-04-25T09:54:05;95270;;;9.5;61.3
77469;BME280;68840;50.272;12.818;2023-04-25T09:56:07;95273;;;9.5;61.1
77469;BME280;68840;50.272;12.818;2023-04-25T09:58:06;95274;;;9.5;59.0
77469;BME280;68840;50.272;12.818;2023-04-25T10:00:10;95280;;;9.5;59.4
77469;BME280;68840;50.272;12.818;2023-04-25T10:02:07;95278;;;9.5;58.3
77469;BME280;68840;50.272;12.818;2023-04-25T10:04:06;95277;;;9.5;58.8
77469;BME280;68840;50.272;12.818;2023-04-25T10:06:08;95281;;;9.5;59.0
77469;BME280;68840;50.272;12.818;2023-04-25T10:08:06;95282;;;9.5;59.2
77469;BME280;68840;50.272;12.818;2023-04-25T10:10:06;95283;;;9.5;59.7
77469;BME280;68840;50.272;12.818;2023-04-25T10:12:07;95283;;;9.6;59.5
77469;BME280;68840;50.272;12.818;2023-04-25T10:14:06;95285;;;9.7;60.3
77469;BME280;68840;50.272;12.818;2023-04-25T10:16:05;95287;;;9.7;57.6
77469;BME280;68840;50.272;12.818;2023-04-25T10:18:06;95288;;;9.7;57.1
77469;BME280;68840;50.272;12.818;2023-04-25T10:20:11;95286;;;9.7;56.5
77469;BME280;68840;50.272;12.818;2023-04-25T10:22:08;95281;;;9.8;58.3
77469;BME280;68840;50.272;12.818;2023-04-25T10:24:05;95278;;;9.9;58.1
77469;BME280;68840;50.272;12.818;2023-04-25T10:26:07;95273;;;9.9;57.7
77469;BME280;68840;50.272;12.818;2023-04-25T10:28:05;95276;;;10.0;57.0
77469;BME280;68840;50.272;12.818;2023-04-25T10:30:10;95278;;;10.1;54.2
77469;BME280;68840;50.272;12.818;2023-04-25T10:32:05;95277;;;10.1;54.6
77469;BME280;68840;50.272;12.818;2023-04-25T10:34:05;95279;;;10.1;56.4
77469;BME280;68840;50.272;12.818;2023-04-25T10:36:10;95278;;;10.2;54.2
77469;BME280;68840;50.272;12.818;2023-04-25T10:38:09;95281;;;10.2;56.3
77469;BME280;68840;50.272;12.818;2023-04-25T10:40:09;95282;;;10.2;52.4
77469;BME280;68840;50.272;12.818;2023-04-25T10:42:06;95283;;;10.2;54.8
77469;BME280;68840;50.272;12.818;2023-04-25T10:44:05;95288;;;10.2;52.8
77469;BME280;68840;50.272;12.818;2023-04-25T10:46:13;95290;;;10.2;51.5
77469;BME280;68840;50.272;12.818;2023-04-25T10:48:24;95286;;;10.1;51.9
77469;BME280;68840;50.272;12.818;2023-04-25T10:50:07;95288;;;10.1;52.6
77469;BME280;68840;50.272;12.818;2023-04-25T10:52:15;95286;;;10.1;52.9
77469;BME280;68840;50.272;12.818;2023-04-25T10:54:06;95288;;;10.1;52.5
77469;BME280;68840;50.272;12.818;2023-04-25T10:56:09;95288;;;10.1;52.4
77469;BME280;68840;50.272;12.818;2023-04-25T10:58:06;95288;;;10.1;51.0
77469;BME280;68840;50.272;12.818;2023-04-25T11:00:09;95290;;;10.1;52.2
77469;BME280;68840;50.272;12.818;2023-04-25T11:02:12;95288;;;10.1;52.0
77469;BME280;68840;50.272;12.818;2023-04-25T11:04:06;95285;;;10.2;51.5
77469;BME280;68840;50.272;12.818;2023-04-25T11:06:07;95286;;;10.3;53.5
77469;BME280;68840;50.272;12.818;2023-04-25T11:08:11;95285;;;10.4;51.7
77469;BME280;68840;50.272;12.818;2023-04-25T11:10:06;95281;;;10.6;53.2
77469;BME280;68840;50.272;12.818;2023-04-25T11:12:07;95280;;;10.7;51.6
77469;BME280;68840;50.272;12.818;2023-04-25T11:14:05;95278;;;10.8;49.8
77469;BME280;68840;50.272;12.818;2023-04-25T11:16:07;95276;;;10.9;49.5
77469;BME280;68840;50.272;12.818;2023-04-25T11:18:06;95275;;;11.0;51.0